Banksville, New York
Current Conditions -  °F | °C
As of 3:56 PM on Thursday 18 Dec 2014 (Local Time) from KHPN Reporting Station
Broken Clouds Broken Clouds  
Wind Chill: 29°   Ceiling: 3400
Heat Index: 38°   Visibility: 10mi
Dew Point: 25°   Wind: 16mph
Humidity: 60%   Direction: 290°WNW
Pressure: 29.92"   Gusts: 25mph
Location:  41.191°N, 73.6333°W
Report Text: KHPN 182056Z 29014G22KT 10SM BKN034 03/M04 A2992 RMK AO2 PK WND 30026/2005 SLP138 T00331039 53005
Loading
Personal Weather Stations






























Interactive Weather Map New forecast layout! Learn more

10-Day Weather Forecast

Advertisements
Track Severe Weather on mobile